createdAt,value
2018-05-17T00:00:29.831Z,62.72
2018-05-17T00:01:39.302Z,62.49
2018-05-17T00:02:49.308Z,63.48
2018-05-17T00:03:59.315Z,62.91
2018-05-17T00:05:08.787Z,62.72
2018-05-17T00:06:18.529Z,63.83
2018-05-17T00:07:28.543Z,63.01
2018-05-17T00:08:38.018Z,62.81
2018-05-17T00:09:48.049Z,63.73
2018-05-17T00:10:58.055Z,63.96
2018-05-17T00:12:07.793Z,63.76
2018-05-17T00:13:17.827Z,64.02
2018-05-17T00:14:27.920Z,62.62
2018-05-17T00:15:37.931Z,62.59
2018-05-17T00:16:47.941Z,63.54
2018-05-17T00:17:57.684Z,62.49
2018-05-17T00:19:07.431Z,62.49
2018-05-17T00:20:17.170Z,62.59
2018-05-17T00:21:27.179Z,63.92
2018-05-17T00:22:36.925Z,63.35
2018-05-17T00:23:46.664Z,63.35
2018-05-17T00:24:56.680Z,63.73
2018-05-17T00:26:06.423Z,63.54
2018-05-17T00:27:16.172Z,63.83
2018-05-17T00:28:25.926Z,64.11
2018-05-17T00:29:35.949Z,64.31
2018-05-17T00:30:45.964Z,64.59
2018-05-17T00:31:56.368Z,63.17
2018-05-17T00:33:06.111Z,64.11
2018-05-17T00:34:16.121Z,64.21
2018-05-17T00:35:26.134Z,63.54
2018-05-17T00:36:35.876Z,63.73
2018-05-17T00:37:45.354Z,63.54
2018-05-17T00:38:55.374Z,63.83
2018-05-17T00:40:05.114Z,64.4
2018-05-17T00:41:14.856Z,63.45
2018-05-17T00:42:24.880Z,63.92
2018-05-17T00:43:34.629Z,63.54
2018-05-17T00:44:44.099Z,63.45
2018-05-17T00:45:54.115Z,64.02
2018-05-17T00:47:03.859Z,64.02
2018-05-17T00:48:13.866Z,63.92
2018-05-17T00:49:23.668Z,63.92
2018-05-17T00:50:33.406Z,63.83
2018-05-17T00:51:43.413Z,63.54
2018-05-17T00:52:53.480Z,63.73
2018-05-17T00:54:03.221Z,63.83
2018-05-17T00:55:12.969Z,63.92
2018-05-17T00:56:22.983Z,63.64
2018-05-17T00:57:32.725Z,63.83
2018-05-17T00:58:42.473Z,64.69
2018-05-17T00:59:52.211Z,63.83
2018-05-17T01:01:02.325Z,64.87
2018-05-17T01:02:12.079Z,63.92
2018-05-17T01:03:22.093Z,63.54
2018-05-17T01:04:32.106Z,63.45
2018-05-17T01:05:42.111Z,62.88
2018-05-17T01:06:52.120Z,63.57
2018-05-17T01:08:02.146Z,63.45
2018-05-17T01:09:11.898Z,63.54
2018-05-17T01:10:21.445Z,63.83
2018-05-17T01:11:30.926Z,63.54
2018-05-17T01:12:40.397Z,63.35
2018-05-17T01:13:50.400Z,64.21
2018-05-17T01:14:59.872Z,64.78
2018-05-17T01:16:09.350Z,63.64
2018-05-17T01:17:19.353Z,63.92
2018-05-17T01:18:29.364Z,64.87
2018-05-17T01:19:39.116Z,64.5
2018-05-17T01:20:49.133Z,63.54
2018-05-17T01:21:59.141Z,63.83
2018-05-17T01:23:08.613Z,63.45
2018-05-17T01:24:18.352Z,63.83
2018-05-17T01:25:28.367Z,63.64
2018-05-17T01:26:38.115Z,63.45
2018-05-17T01:27:48.130Z,63.45
2018-05-17T01:28:58.139Z,63.64
2018-05-17T01:30:08.166Z,63.35
2018-05-17T01:31:18.172Z,63.64
2018-05-17T01:32:28.178Z,63.54
2018-05-17T01:33:37.922Z,63.83
2018-05-17T01:34:47.929Z,63.83
2018-05-17T01:35:57.716Z,63.45
2018-05-17T01:37:06.925Z,62.88
2018-05-17T01:38:16.683Z,63.92
2018-05-17T01:39:26.629Z,63.83
2018-05-17T01:40:36.101Z,63.83
2018-05-17T01:41:46.114Z,64.02
2018-05-17T01:42:56.120Z,63.35
2018-05-17T01:44:06.137Z,63.54
2018-05-17T01:45:16.147Z,63.54
2018-05-17T01:46:26.153Z,63.64
2018-05-17T01:47:36.165Z,62.97
2018-05-17T01:48:46.252Z,63.07
2018-05-17T01:49:55.735Z,62.97
2018-05-17T01:51:05.228Z,63.54
2018-05-17T01:52:15.057Z,62.69
2018-05-17T01:53:25.068Z,62.97
2018-05-17T01:54:34.809Z,63.73
2018-05-17T01:55:44.552Z,62.49
2018-05-17T01:56:54.560Z,63.35
2018-05-17T01:58:04.307Z,63.07
2018-05-17T01:59:14.367Z,63.83
2018-05-17T02:00:24.388Z,63.54
2018-05-17T02:01:33.864Z,63.83
2018-05-17T02:02:43.359Z,62.49
2018-05-17T02:03:53.102Z,62.97
2018-05-17T02:05:03.204Z,62.97
2018-05-17T02:06:12.950Z,63.54
2018-05-17T02:07:22.176Z,63.73
2018-05-17T02:08:31.910Z,63.64
2018-05-17T02:09:41.388Z,63.48
2018-05-17T02:10:51.478Z,62.88
2018-05-17T02:12:01.496Z,62.91
2018-05-17T02:13:10.702Z,62.78
2018-05-17T02:14:20.714Z,62.69
2018-05-17T02:15:30.191Z,62.78
2018-05-17T02:16:39.933Z,63.45
2018-05-17T02:17:49.414Z,62.91
2018-05-17T02:18:59.425Z,62.53
2018-05-17T02:20:09.523Z,61.67
2018-05-17T02:21:19.530Z,62.49
2018-05-17T02:22:29.370Z,62.02
2018-05-17T02:23:39.109Z,63.01
2018-05-17T02:24:48.584Z,62.59
2018-05-17T02:25:58.608Z,62.72
2018-05-17T02:27:08.351Z,62.02
2018-05-17T02:28:17.826Z,62.88
2018-05-17T02:29:27.927Z,62.49
2018-05-17T02:30:37.955Z,62.88
2018-05-17T02:31:47.699Z,62.59
2018-05-17T02:32:57.727Z,62.62
2018-05-17T02:34:07.508Z,61.77
2018-05-17T02:35:17.259Z,62.24
2018-05-17T02:36:27.017Z,61.77
2018-05-17T02:37:36.761Z,61.86
2018-05-17T02:38:46.780Z,62.43
2018-05-17T02:39:56.804Z,61.86
2018-05-17T02:41:06.838Z,62.24
2018-05-17T02:42:16.959Z,62.53
2018-05-17T02:43:26.978Z,62.43
2018-05-17T02:44:36.991Z,62.43
2018-05-17T02:45:47.007Z,61.58
2018-05-17T02:46:56.779Z,61.86
2018-05-17T02:48:06.796Z,61.96
2018-05-17T02:49:16.967Z,62.15
2018-05-17T02:50:26.719Z,62.59
2018-05-17T02:51:36.830Z,62.02
2018-05-17T02:52:46.862Z,62.62
2018-05-17T02:53:56.886Z,62.02
2018-05-17T02:55:06.386Z,62.15
2018-05-17T02:56:16.133Z,62.97
2018-05-17T02:57:26.160Z,62.81
2018-05-17T02:58:35.919Z,63.35
2018-05-17T02:59:45.402Z,62.91
2018-05-17T03:03:27.752Z,62.69
2018-05-17T03:04:37.517Z,62.53
2018-05-17T03:05:47.275Z,63.86
2018-05-17T03:06:56.750Z,62.88
2018-05-17T03:08:06.769Z,63.45
2018-05-17T03:09:16.780Z,62.49
2018-05-17T03:10:26.259Z,62.59
2018-05-17T03:11:36.272Z,62.59
2018-05-17T03:12:46.299Z,62.53
2018-05-17T03:13:55.774Z,62.81
2018-05-17T03:15:05.524Z,62.34
2018-05-17T03:16:15.543Z,62.81
2018-05-17T03:17:25.552Z,62.62
2018-05-17T03:18:35.292Z,62.43
2018-05-17T03:19:45.035Z,63.86
2018-05-17T03:20:54.772Z,62.91
2018-05-17T03:22:04.250Z,61.58
2018-05-17T03:23:13.992Z,62.34
2018-05-17T03:24:24.002Z,62.81
2018-05-17T03:25:33.743Z,62.62
2018-05-17T03:26:42.968Z,62.53
2018-05-17T03:27:52.725Z,62.62
2018-05-17T03:29:02.205Z,62.53
2018-05-17T03:30:11.951Z,62.59
2018-05-17T03:31:21.707Z,64.15
2018-05-17T03:32:31.822Z,64.53
2018-05-17T03:33:41.833Z,65.38
2018-05-17T03:34:51.845Z,64.87
2018-05-17T03:36:01.319Z,65.83
2018-05-17T03:37:11.075Z,65.1
2018-05-17T03:38:21.086Z,66.87
2018-05-17T03:39:31.108Z,67.25
2018-05-17T03:40:41.127Z,67.92
2018-05-17T03:41:51.141Z,68.4
2018-05-17T03:43:00.887Z,68.4
2018-05-17T03:44:10.368Z,69.25
2018-05-17T03:45:20.117Z,69.5
2018-05-17T03:46:30.126Z,70.45
2018-05-17T03:47:39.885Z,70.83
2018-05-17T03:48:49.355Z,70.54
2018-05-17T03:49:59.375Z,71.22
2018-05-17T03:51:08.581Z,71.88
2018-05-17T03:52:18.332Z,71.97
2018-05-17T03:53:28.077Z,73.59
2018-05-17T03:54:38.103Z,74.26
2018-05-17T03:55:48.114Z,74.26
2018-05-17T03:56:57.591Z,74.73
2018-05-17T03:58:07.065Z,75.02
2018-05-17T03:59:17.078Z,75.68
2018-05-17T04:00:27.091Z,76.31
2018-05-17T04:01:37.100Z,76.97
2018-05-17T04:02:47.107Z,77.45
2018-05-17T04:03:56.851Z,77.92
2018-05-17T04:05:06.892Z,77.36
2018-05-17T04:06:17.257Z,77.73
2018-05-17T04:07:27.316Z,78.74
2018-05-17T04:08:37.156Z,78.11
2018-05-17T04:09:47.090Z,78.17
2018-05-17T04:10:56.834Z,78.59
2018-05-17T04:12:06.574Z,78.3
2018-05-17T04:13:16.328Z,78.21
2018-05-17T04:14:26.341Z,78.17
2018-05-17T04:15:36.082Z,78.36
2018-05-17T04:16:45.826Z,78.55
2018-05-17T04:17:55.297Z,78.69
2018-05-17T04:19:05.308Z,79.03
2018-05-17T04:20:15.045Z,79.06
2018-05-17T04:21:24.787Z,79.03
2018-05-17T04:22:34.530Z,78.4
2018-05-17T04:23:44.003Z,79.12
2018-05-17T04:24:53.744Z,78.93
2018-05-17T04:26:03.219Z,79.79
2018-05-17T04:27:12.960Z,80.35
2018-05-17T04:28:22.695Z,79.79
2018-05-17T04:29:32.166Z,80.83
2018-05-17T04:30:41.906Z,80.35
2018-05-17T04:31:51.379Z,81.3
2018-05-17T04:33:01.390Z,81.02
2018-05-17T04:34:11.422Z,81.12
2018-05-17T04:35:20.899Z,81.3
2018-05-17T04:36:30.637Z,81.97
2018-05-17T04:37:40.382Z,82.16
2018-05-17T04:38:50.129Z,81.78
2018-05-17T04:40:00.143Z,80.93
2018-05-17T04:41:09.624Z,80.74
2018-05-17T04:42:19.640Z,80.35
2018-05-17T04:43:29.660Z,79.22
2018-05-17T04:44:39.134Z,79.31
2018-05-17T04:45:49.145Z,77.98
2018-05-17T04:46:59.163Z,78.27
2018-05-17T04:48:09.226Z,77.79
2018-05-17T04:49:19.235Z,78.27
2018-05-17T04:50:28.974Z,77.55
2018-05-17T04:51:38.717Z,77.17
2018-05-17T04:52:48.189Z,77.36
2018-05-17T04:53:58.197Z,76.97
2018-05-17T04:55:08.220Z,77.64
2018-05-17T04:56:18.228Z,77.17
2018-05-17T04:57:28.239Z,76.88
2018-05-17T04:58:38.255Z,76.78
2018-05-17T04:59:48.282Z,77.55
2018-05-17T05:00:58.028Z,78.02
2018-05-17T05:02:07.766Z,78.21
2018-05-17T05:03:17.772Z,78.21
2018-05-17T05:04:27.778Z,77.55
2018-05-17T05:05:37.783Z,78.3
2018-05-17T05:06:47.792Z,78.88
2018-05-17T05:07:57.528Z,78.78
2018-05-17T05:09:07.540Z,78.97
2018-05-17T05:10:17.290Z,79.54
2018-05-17T05:11:27.296Z,80.21
2018-05-17T05:12:37.043Z,80.77
2018-05-17T05:13:47.054Z,80.49
2018-05-17T05:14:56.867Z,80.87
2018-05-17T05:16:06.077Z,82.77
2018-05-17T05:17:15.557Z,81.92
2018-05-17T05:18:25.565Z,82.77
2018-05-17T05:19:35.581Z,82.29
2018-05-17T05:20:45.588Z,82.58
2018-05-17T05:21:55.338Z,83.72
2018-05-17T05:23:04.284Z,83.82
2018-05-17T05:24:14.291Z,83.44
2018-05-17T05:25:24.122Z,83.06
2018-05-17T05:26:34.146Z,83.15
2018-05-17T05:27:44.159Z,82.58
2018-05-17T05:28:53.463Z,82.29
2018-05-17T05:30:03.200Z,82.39
2018-05-17T05:31:12.683Z,82.77
2018-05-17T05:32:22.420Z,82.39
2018-05-17T05:33:32.161Z,82.2
2018-05-17T05:34:42.167Z,81.92
2018-05-17T05:35:52.167Z,82.87
2018-05-17T05:37:02.172Z,82.49
2018-05-17T05:38:12.182Z,83.06
2018-05-17T05:39:22.195Z,82.58
2018-05-17T05:40:32.201Z,81.82
2018-05-17T05:41:41.936Z,81.63
2018-05-17T05:42:51.961Z,82.29
2018-05-17T05:44:01.434Z,82.2
2018-05-17T05:45:11.179Z,83.15
2018-05-17T05:46:20.928Z,82.96
2018-05-17T05:47:30.941Z,83.25
2018-05-17T05:48:40.953Z,83.62
2018-05-17T05:49:50.424Z,83.44
2018-05-17T05:51:00.452Z,82.87
2018-05-17T05:52:10.195Z,84.29
2018-05-17T05:53:19.932Z,83.62
2018-05-17T05:54:29.945Z,83.62
2018-05-17T05:55:40.039Z,84.2
2018-05-17T05:56:49.784Z,83.91
2018-05-17T05:57:59.260Z,83.25
2018-05-17T05:59:09.277Z,84.39
2018-05-17T06:00:19.024Z,84.77
2018-05-17T06:01:29.130Z,85.53
2018-05-17T06:02:39.144Z,84.39
2018-05-17T06:03:49.150Z,83.82
2018-05-17T06:04:59.155Z,85.24
2018-05-17T06:06:08.916Z,85.24
2018-05-17T06:07:18.660Z,85.43
2018-05-17T06:08:28.537Z,84.95
2018-05-17T06:09:38.091Z,85.43
2018-05-17T06:10:47.565Z,84.67
2018-05-17T06:11:57.580Z,84.95
2018-05-17T06:13:07.325Z,85.34
2018-05-17T06:14:17.071Z,85.3
2018-05-17T06:15:27.075Z,85.72
2018-05-17T06:16:37.093Z,84.72
2018-05-17T06:17:47.099Z,84.67
2018-05-17T06:18:56.578Z,84.58
2018-05-17T06:20:06.593Z,83.91
2018-05-17T06:21:16.600Z,84.77
2018-05-17T06:22:26.618Z,85.53
2018-05-17T06:23:36.364Z,85.39
2018-05-17T06:24:46.146Z,84.63
2018-05-17T06:25:56.157Z,85.43
2018-05-17T06:27:05.635Z,84.67
2018-05-17T06:28:15.709Z,83.72
2018-05-17T06:29:25.720Z,83.62
2018-05-17T06:30:35.727Z,83.53
2018-05-17T06:31:45.472Z,83.44
2018-05-17T06:32:55.491Z,82.87
2018-05-17T06:34:05.234Z,83.15
2018-05-17T06:35:15.257Z,83.15
2018-05-17T06:36:25.264Z,82.77
2018-05-17T06:37:35.065Z,82.87
2018-05-17T06:38:45.268Z,82.39
2018-05-17T06:39:55.282Z,81.63
2018-05-17T06:41:05.289Z,82.68
2018-05-17T06:42:15.031Z,81.35
2018-05-17T06:43:24.506Z,81.35
2018-05-17T06:44:34.249Z,82.39
2018-05-17T06:45:43.455Z,81.35
2018-05-17T06:46:53.468Z,81.16
2018-05-17T06:48:02.949Z,81.44
2018-05-17T06:49:12.685Z,81.82
2018-05-17T06:50:22.426Z,81.73
2018-05-17T06:51:32.433Z,81.63
2018-05-17T06:52:42.175Z,80.96
2018-05-17T06:53:51.926Z,80.11
2018-05-17T06:55:01.676Z,79.86
2018-05-17T06:56:11.695Z,79.96
2018-05-17T06:57:21.699Z,80.05
2018-05-17T06:58:31.704Z,79.39
2018-05-17T06:59:41.454Z,79.01
2018-05-17T07:00:51.297Z,78.63
2018-05-17T07:02:01.564Z,78.44
2018-05-17T07:03:11.571Z,78.25
2018-05-17T07:04:21.057Z,78
2018-05-17T07:05:30.575Z,78.57
2018-05-17T07:06:40.318Z,77.62
2018-05-17T07:07:50.336Z,77.72
2018-05-17T07:09:00.079Z,76.76
2018-05-17T07:10:10.095Z,76.76
2018-05-17T07:11:20.109Z,77.72
2018-05-17T07:12:30.140Z,76.86
2018-05-17T07:13:40.157Z,76.57
2018-05-17T07:14:49.909Z,77.15
2018-05-17T07:15:59.933Z,77.24
2018-05-17T07:17:09.942Z,76.96
2018-05-17T07:18:20.273Z,77.15
2018-05-17T07:19:30.646Z,77.53
2018-05-17T07:20:40.653Z,77.72
2018-05-17T07:21:50.412Z,76.86
2018-05-17T07:22:59.891Z,77.15
2018-05-17T07:24:09.780Z,76.57
2018-05-17T07:25:19.980Z,75.95
2018-05-17T07:26:29.719Z,75.19
2018-05-17T07:27:39.459Z,74.8
2018-05-17T07:28:49.203Z,73.66
2018-05-17T07:29:58.507Z,73.95
2018-05-17T07:31:08.192Z,73.57
2018-05-17T07:32:17.990Z,73.95
2018-05-17T07:33:27.732Z,73.13
2018-05-17T07:34:37.486Z,72.56
2018-05-17T07:35:46.965Z,72.46
2018-05-17T07:36:56.985Z,71.13
2018-05-17T07:38:06.466Z,71.42
2018-05-17T07:39:16.611Z,71.13
2018-05-17T07:40:26.594Z,72.27
2018-05-17T07:41:36.342Z,71.83
2018-05-17T07:42:46.095Z,69.64
2018-05-17T07:43:56.103Z,68.69
2018-05-17T07:45:05.851Z,69.83
2018-05-17T07:46:15.870Z,68.02
2018-05-17T07:47:25.884Z,68.78
2018-05-17T07:48:35.630Z,68.59
2018-05-17T07:49:45.373Z,67.74
2018-05-17T07:50:55.130Z,67
2018-05-17T07:52:05.042Z,67.39
2018-05-17T07:53:15.182Z,66.53
2018-05-17T07:54:24.942Z,66.24
2018-05-17T07:55:34.818Z,66.05
2018-05-17T07:56:45.205Z,65.52
2018-05-17T07:57:54.686Z,63.99
2018-05-17T07:59:04.706Z,64.94
2018-05-17T08:00:14.460Z,64.09
2018-05-17T08:01:24.482Z,63.89
2018-05-17T08:02:34.494Z,63.99
2018-05-17T08:03:44.236Z,64.37
2018-05-17T08:04:53.984Z,63.8
2018-05-17T08:06:03.459Z,63.51
2018-05-17T08:07:12.935Z,63.13
2018-05-17T08:08:22.680Z,63.13
2018-05-17T08:09:32.571Z,62.27
2018-05-17T08:10:42.589Z,62.88
2018-05-17T08:11:52.381Z,61.63
2018-05-17T08:13:02.392Z,61.63
2018-05-17T08:14:12.142Z,61.83
2018-05-17T08:15:22.158Z,61.63
2018-05-17T08:16:31.650Z,61.35
2018-05-17T08:17:41.395Z,61.16
2018-05-17T08:18:51.139Z,61.54
2018-05-17T08:20:01.157Z,61.63
2018-05-17T08:21:10.368Z,61.99
2018-05-17T08:22:20.116Z,60.87
2018-05-17T08:23:30.135Z,60.36
2018-05-17T08:24:40.151Z,61.8
2018-05-17T08:25:49.895Z,60.97
2018-05-17T08:26:59.913Z,61.07
2018-05-17T08:28:09.663Z,61.35
2018-05-17T08:29:19.408Z,60.39
2018-05-17T08:30:28.886Z,60.02
2018-05-17T08:31:38.913Z,60.02
2018-05-17T08:32:48.664Z,58.99
2018-05-17T08:33:58.414Z,60.14
2018-05-17T08:35:08.158Z,60.04
2018-05-17T08:36:18.488Z,59.38
2018-05-17T08:37:29.121Z,58.9
2018-05-17T08:38:38.872Z,59.47
2018-05-17T08:39:48.630Z,59.31
2018-05-17T08:40:58.113Z,59.12
2018-05-17T08:42:08.129Z,58.64
2018-05-17T08:43:18.162Z,57.65
2018-05-17T08:44:27.910Z,59.09
2018-05-17T08:45:37.743Z,59.28
2018-05-17T08:46:48.062Z,58.9
2018-05-17T08:47:57.808Z,58.04
2018-05-17T08:49:07.563Z,58.42
2018-05-17T08:50:17.314Z,58.8
2018-05-17T08:51:27.059Z,58.68
2018-05-17T08:52:36.908Z,59.25
2018-05-17T08:53:46.124Z,59.28
2018-05-17T08:54:55.871Z,59.28
2018-05-17T08:56:05.900Z,58.42
2018-05-17T08:57:15.115Z,59.19
2018-05-17T08:58:24.858Z,58.51
2018-05-17T08:59:34.605Z,57.31
2018-05-17T09:00:44.314Z,57.75
2018-05-17T09:01:54.325Z,57.75
2018-05-17T09:03:03.811Z,58.33
2018-05-17T09:04:13.928Z,58.61
2018-05-17T09:05:23.943Z,58.7
2018-05-17T09:06:33.961Z,58.04
2018-05-17T09:07:43.716Z,57.97
2018-05-17T09:08:53.472Z,57.87
2018-05-17T09:10:02.714Z,55.96
2018-05-17T09:11:12.461Z,57.28
2018-05-17T09:12:21.938Z,57.65
2018-05-17T09:13:32.154Z,57.65
2018-05-17T09:14:42.336Z,58.77
2018-05-17T09:15:51.596Z,60.08
2018-05-17T09:17:01.622Z,61.19
2018-05-17T09:18:11.365Z,61.64
2018-05-17T09:19:21.391Z,62.59
2018-05-17T09:20:30.615Z,62.21
2018-05-17T09:21:40.508Z,62.97
2018-05-17T09:22:50.526Z,62.97
2018-05-17T09:24:00.537Z,62.49
2018-05-17T09:25:10.290Z,64.12
2018-05-17T09:26:20.303Z,64.02
2018-05-17T09:27:29.780Z,64.12
2018-05-17T09:28:39.589Z,63.83
2018-05-17T09:29:49.340Z,64.78
2018-05-17T09:30:59.104Z,64.78
2018-05-17T09:32:09.115Z,65.99
2018-05-17T09:33:18.928Z,65.13
2018-05-17T09:34:28.694Z,64.69
2018-05-17T09:35:38.784Z,64.78
2018-05-17T09:36:48.675Z,64.12
2018-05-17T09:37:58.685Z,63.54
2018-05-17T09:39:08.727Z,61.64
2018-05-17T09:40:18.489Z,62.88
2018-05-17T09:41:28.315Z,64.78
2018-05-17T09:42:37.925Z,64.69
2018-05-17T09:43:47.670Z,64.5
2018-05-17T09:44:57.757Z,62.91
2018-05-17T09:46:07.307Z,61.67
2018-05-17T09:47:17.335Z,61.67
2018-05-17T09:48:27.343Z,61.38
2018-05-17T09:49:37.353Z,61.38
2018-05-17T09:50:47.366Z,61.19
2018-05-17T09:51:57.108Z,61.86
2018-05-17T09:53:07.139Z,61.89
2018-05-17T09:54:16.885Z,61.04
2018-05-17T09:55:26.901Z,60.08
2018-05-17T09:56:37.000Z,60.17
2018-05-17T09:57:47.022Z,57.7
2018-05-17T09:58:56.767Z,58.46
2018-05-17T10:00:06.778Z,57.98
2018-05-17T10:01:16.790Z,57.79
2018-05-17T10:02:26.799Z,57.6
2018-05-17T10:03:36.831Z,58.65
2018-05-17T10:04:46.578Z,58.75
2018-05-17T10:05:56.597Z,58.26
2018-05-17T10:07:06.074Z,57.98
2018-05-17T10:08:15.605Z,57.98
2018-05-17T10:09:25.616Z,59.51
2018-05-17T10:10:35.629Z,58.26
2018-05-17T10:11:45.646Z,57.95
2018-05-17T10:12:55.661Z,58.33
2018-05-17T10:14:05.692Z,58.81
2018-05-17T10:15:15.167Z,59
2018-05-17T10:16:25.201Z,59.38
2018-05-17T10:17:34.952Z,60.05
2018-05-17T10:18:44.969Z,59.28
2018-05-17T10:19:54.976Z,59.51
2018-05-17T10:21:04.458Z,58.94
2018-05-17T10:22:13.943Z,57.98
2018-05-17T10:23:23.960Z,58.55
2018-05-17T10:24:33.699Z,58.36
2018-05-17T10:25:43.718Z,57.98
2018-05-17T10:26:53.194Z,57.7
2018-05-17T10:28:03.206Z,58.39
2018-05-17T10:29:12.417Z,60.11
2018-05-17T10:30:21.634Z,59.25
2018-05-17T10:31:31.388Z,58.58
2018-05-17T10:32:41.407Z,58.58
2018-05-17T10:33:51.153Z,57.94
2018-05-17T10:35:01.170Z,57.65
2018-05-17T10:36:10.920Z,57.65
2018-05-17T10:37:20.961Z,57.78
2018-05-17T10:38:30.709Z,56.06
2018-05-17T10:39:40.194Z,55.58
2018-05-17T10:40:50.216Z,55.58
2018-05-17T10:42:00.229Z,54.72
2018-05-17T10:43:10.175Z,55.13
2018-05-17T10:44:20.008Z,54.18
2018-05-17T10:45:29.758Z,52.94
2018-05-17T10:46:39.636Z,54.08
2018-05-17T10:47:49.381Z,53.32
2018-05-17T10:48:59.240Z,52.36
2018-05-17T10:50:09.623Z,51.86
2018-05-17T10:51:19.641Z,52.15
2018-05-17T10:52:29.650Z,52.62
2018-05-17T10:53:39.668Z,53.55
2018-05-17T10:54:48.890Z,52.81
2018-05-17T10:55:58.902Z,53.93
2018-05-17T10:57:08.915Z,54.7
2018-05-17T10:58:18.663Z,54.22
2018-05-17T10:59:28.416Z,57.46
2018-05-17T11:00:38.432Z,56.32
2018-05-17T11:01:48.174Z,54.06
2018-05-17T11:02:58.207Z,53.39
2018-05-17T11:04:08.247Z,53.17
2018-05-17T11:05:18.257Z,55.46
2018-05-17T11:06:28.268Z,54.89
2018-05-17T11:07:38.289Z,54.41
2018-05-17T11:08:48.040Z,55.84
2018-05-17T11:09:58.050Z,54.32
2018-05-17T11:11:07.794Z,53.84
2018-05-17T11:12:18.057Z,53.67
2018-05-17T11:13:27.911Z,53.29
2018-05-17T11:14:37.927Z,54.44
2018-05-17T11:15:47.759Z,54.72
2018-05-17T11:16:57.510Z,54.44
2018-05-17T11:18:06.988Z,54.47
2018-05-17T11:19:17.011Z,54.18
2018-05-17T11:20:26.774Z,51.5
2018-05-17T11:21:36.803Z,53.32
2018-05-17T11:22:46.281Z,55.32
2018-05-17T11:23:56.304Z,56.38
2018-05-17T11:25:06.054Z,53.53
2018-05-17T11:26:15.803Z,52.39
2018-05-17T11:27:25.281Z,49.64
2018-05-17T11:28:34.492Z,49.95
2018-05-17T11:29:44.239Z,48.64
2018-05-17T11:30:54.264Z,49.81
2018-05-17T11:32:04.352Z,47.27
2018-05-17T11:33:14.291Z,47.2
2018-05-17T11:34:23.773Z,46.55
2018-05-17T11:35:33.805Z,44.96
2018-05-17T11:36:43.291Z,43.54
2018-05-17T11:37:53.310Z,42.53
2018-05-17T11:39:03.328Z,40.63
2018-05-17T11:40:13.083Z,40.64
2018-05-17T11:41:22.847Z,39.91
2018-05-17T11:42:32.872Z,36.36
2018-05-17T11:43:42.898Z,36.17
2018-05-17T11:44:52.953Z,31.85
2018-05-17T11:46:02.706Z,33.34
2018-05-17T11:47:12.463Z,33.23
2018-05-17T11:48:22.617Z,34.46
2018-05-17T11:49:33.120Z,34.45
2018-05-17T11:50:42.613Z,34.25
2018-05-17T11:51:51.871Z,35.12
2018-05-17T11:53:01.898Z,35.89
2018-05-17T11:54:11.389Z,35.83
2018-05-17T11:55:20.887Z,34.5
2018-05-17T11:56:30.913Z,34.22
2018-05-17T11:57:40.945Z,33.74
2018-05-17T11:58:50.803Z,33.47
2018-05-17T12:00:00.868Z,34.36
2018-05-17T12:01:10.628Z,29.75
2018-05-17T12:02:20.659Z,30.33
2018-05-17T12:03:30.178Z,30.22
2018-05-17T12:04:39.774Z,31.75
2018-05-17T12:05:49.808Z,31.78
2018-05-17T12:06:59.834Z,31.51
2018-05-17T12:08:09.069Z,29.49
2018-05-17T12:09:19.099Z,30.96
2018-05-17T12:10:28.913Z,31.36
2018-05-17T12:11:38.944Z,31.29
2018-05-17T12:12:48.974Z,30.26
2018-05-17T12:13:58.745Z,29.79
2018-05-17T12:15:08.513Z,28.54
2018-05-17T12:16:18.562Z,26.92
2018-05-17T12:17:28.336Z,26.73
2018-05-17T12:18:38.374Z,25.38
2018-05-17T12:19:47.962Z,25.2
2018-05-17T12:20:57.464Z,24.15
2018-05-17T12:22:06.963Z,22.39
2018-05-17T12:23:17.002Z,23.35
2018-05-17T12:24:26.770Z,23.07
2018-05-17T12:25:36.539Z,23.15
2018-05-17T12:26:46.032Z,22.96
2018-05-17T12:27:56.087Z,22.67
2018-05-17T12:29:06.124Z,23.25
2018-05-17T12:30:15.890Z,23.46
2018-05-17T12:31:25.679Z,20.83
2018-05-17T12:32:35.705Z,22.77
2018-05-17T12:33:45.578Z,21.59
2018-05-17T12:34:55.072Z,23.52
2018-05-17T12:36:04.856Z,23.63
2018-05-17T12:37:14.964Z,23.16
2018-05-17T12:38:25.157Z,23.45
2018-05-17T12:39:35.197Z,23.07
2018-05-17T12:40:45.228Z,22.61
2018-05-17T12:41:55.265Z,22.91
2018-05-17T12:43:05.314Z,21.07
2018-05-17T12:44:14.816Z,20.01
2018-05-17T12:45:24.848Z,21.46
2018-05-17T12:46:34.881Z,21.86
2018-05-17T12:47:44.913Z,21.88
2018-05-17T12:48:54.681Z,18.66
2018-05-17T12:50:04.460Z,18.37
2018-05-17T12:51:14.586Z,19.52
2018-05-17T12:52:24.623Z,19.9
2018-05-17T12:53:34.125Z,19.51
2018-05-17T12:54:43.901Z,17.57
2018-05-17T12:55:53.929Z,18.63
2018-05-17T12:57:02.889Z,19.41
2018-05-17T12:58:12.653Z,18.15
2018-05-17T12:59:22.685Z,20.06
2018-05-17T13:00:32.727Z,20.61
2018-05-17T13:01:42.769Z,20.79
2018-05-17T13:02:52.836Z,22.64
2018-05-17T13:04:02.613Z,22.66
2018-05-17T13:05:12.379Z,22.09
2018-05-17T13:06:21.878Z,20.64
2018-05-17T13:07:31.916Z,20.63
2018-05-17T13:08:41.410Z,22.08
2018-05-17T13:09:51.449Z,21.03
2018-05-17T13:11:01.230Z,20.75
2018-05-17T13:12:11.267Z,21.72
2018-05-17T13:13:21.125Z,21.73
2018-05-17T13:14:30.894Z,21.07
2018-05-17T13:15:40.659Z,20.69
2018-05-17T13:16:50.430Z,20.1
2018-05-17T13:18:00.191Z,20.18
2018-05-17T13:19:09.964Z,20.28
2018-05-17T13:20:20.005Z,19.8
2018-05-17T13:21:29.764Z,20.29
2018-05-17T13:22:39.806Z,20.31
2018-05-17T13:23:49.837Z,19.06
2018-05-17T13:24:59.691Z,17.98
2018-05-17T13:26:09.457Z,18.56
2018-05-17T13:27:19.500Z,19.82
2018-05-17T13:28:29.548Z,18.77
2018-05-17T13:29:39.318Z,18.38
2018-05-17T13:30:49.348Z,18.39
2018-05-17T13:31:59.203Z,18.59
2018-05-17T13:33:08.971Z,18.49
2018-05-17T13:34:19.006Z,16.83
2018-05-17T13:35:28.781Z,16.72
2018-05-17T13:36:38.822Z,16.92
2018-05-17T13:37:48.913Z,17.97
2018-05-17T13:38:58.451Z,18.66
2018-05-17T13:40:08.485Z,18.37
2018-05-17T13:41:18.250Z,18.96
2018-05-17T13:42:27.493Z,17.3
2018-05-17T13:43:37.263Z,19.15
2018-05-17T13:44:47.291Z,18.68
2018-05-17T13:45:57.437Z,16.63
2018-05-17T13:47:07.247Z,18.17
2018-05-17T13:48:17.300Z,20.17
2018-05-17T13:49:27.342Z,19.31
2018-05-17T13:50:36.579Z,20.19
2018-05-17T13:51:46.623Z,19.92
2018-05-17T13:52:56.128Z,19.26
2018-05-17T13:54:05.895Z,18.88
2018-05-17T13:55:15.665Z,18.4
2018-05-17T13:56:25.431Z,18.12
2018-05-17T13:57:35.469Z,17.05
2018-05-17T13:58:45.245Z,18.03
2018-05-17T13:59:55.306Z,17.36
2018-05-17T14:01:05.125Z,16.78
2018-05-17T14:02:14.891Z,16.69
2018-05-17T14:03:25.380Z,16.2
2018-05-17T14:04:35.430Z,16.19
2018-05-17T14:05:45.481Z,16.58
2018-05-17T14:06:55.319Z,16.78
2018-05-17T14:08:05.090Z,16.51
2018-05-17T14:09:14.592Z,15.92
2018-05-17T14:10:24.636Z,14.55
2018-05-17T14:11:34.140Z,14.84
2018-05-17T14:12:44.528Z,13.75
2018-05-17T14:13:54.508Z,14.98
2018-05-17T14:15:04.286Z,17.32
2018-05-17T14:16:14.481Z,17.14
2018-05-17T14:17:24.593Z,16.85
2018-05-17T14:18:34.361Z,16.96
2018-05-17T14:19:44.130Z,16.78
2018-05-17T14:20:54.163Z,15.9
2018-05-17T14:22:03.399Z,16.51
2018-05-17T14:23:13.519Z,16.02
2018-05-17T14:24:23.699Z,15.34
2018-05-17T14:25:33.465Z,15.16
2018-05-17T14:26:43.509Z,14.37
2018-05-17T14:27:53.544Z,13.2
2018-05-17T14:29:03.309Z,13.88
2018-05-17T14:30:13.357Z,14.95
2018-05-17T14:31:23.138Z,15.06
2018-05-17T14:32:33.171Z,13.4
2018-05-17T14:33:42.673Z,13.58
2018-05-17T14:34:52.198Z,14.65
2018-05-17T14:36:01.970Z,15.42
2018-05-17T14:37:11.471Z,15.53
2018-05-17T14:38:21.509Z,14.85
2018-05-17T14:39:31.554Z,14.34
2018-05-17T14:40:41.323Z,15.32
2018-05-17T14:41:51.554Z,15.04
2018-05-17T14:43:01.321Z,13.18
2018-05-17T14:44:11.088Z,12.97
2018-05-17T14:45:21.124Z,13.16
2018-05-17T14:46:31.172Z,14.12
2018-05-17T14:47:41.217Z,14.49
2018-05-17T14:48:50.990Z,15.27
2018-05-17T14:50:00.499Z,16.31
2018-05-17T14:51:10.003Z,16.68
2018-05-17T14:52:20.051Z,17.85
2018-05-17T14:53:30.157Z,17.58
2018-05-17T14:54:40.199Z,16.98
2018-05-17T14:55:49.796Z,16.51
2018-05-17T14:57:00.052Z,17.1
2018-05-17T14:58:09.551Z,17.49
2018-05-17T14:59:19.049Z,17.41
2018-05-17T15:00:29.087Z,17.22
2018-05-17T15:01:39.139Z,16.75
2018-05-17T15:02:49.265Z,15.39
2018-05-17T15:03:59.303Z,15.3